createdAt,value
2023-05-14T00:00:55.926Z,101965.69
2023-05-14T00:03:23.885Z,101968.44
2023-05-14T00:05:53.218Z,101962.66
2023-05-14T00:08:20.984Z,101958.97
2023-05-14T00:10:48.739Z,101953.97
2023-05-14T00:13:16.472Z,101950.16
2023-05-14T00:15:44.567Z,101951.25
2023-05-14T00:18:12.886Z,101941.78
2023-05-14T00:20:40.920Z,101941.03
2023-05-14T00:23:10.091Z,101945.91
2023-05-14T00:25:38.046Z,101941.94
2023-05-14T00:28:06.156Z,101935.38
2023-05-14T00:30:34.912Z,101938.59
2023-05-14T00:33:02.750Z,101940.44
2023-05-14T00:35:30.568Z,101935.41
2023-05-14T00:37:58.464Z,101935.09
2023-05-14T00:40:28.620Z,101933.44
2023-05-14T00:42:57.344Z,101931.31
2023-05-14T00:45:25.132Z,101924.44
2023-05-14T00:47:53.538Z,101924.13
2023-05-14T00:50:22.052Z,101918.94
2023-05-14T00:52:50.397Z,101915.13
2023-05-14T00:55:18.477Z,101912.22
2023-05-14T00:57:47.675Z,101909.78
2023-05-14T01:00:16.180Z,101909.03
2023-05-14T01:02:44.039Z,101905.06
2023-05-14T01:05:11.946Z,101908.69
2023-05-14T01:07:50.448Z,101913.44
2023-05-14T01:10:26.556Z,101917.25
2023-05-14T01:13:04.595Z,101910.84
2023-05-14T01:15:35.580Z,101911.00
2023-05-14T01:18:08.280Z,101910.53
2023-05-14T01:20:36.541Z,101911.75
2023-05-14T01:23:05.938Z,101911.91
2023-05-14T01:25:33.817Z,101910.69
2023-05-14T01:28:08.767Z,101907.03
2023-05-14T01:30:38.089Z,101900.59
2023-05-14T01:33:11.121Z,101905.16
2023-05-14T01:35:39.201Z,101906.84
2023-05-14T01:38:12.453Z,101913.72
2023-05-14T01:40:40.819Z,101912.03
2023-05-14T01:43:09.116Z,101901.22
2023-05-14T01:45:37.766Z,101906.22
2023-05-14T01:48:05.923Z,101907.75
2023-05-14T01:50:33.756Z,101900.75
2023-05-14T01:53:01.656Z,101892.50
2023-05-14T01:55:30.802Z,101904.69
2023-05-14T01:57:58.638Z,101896.91
2023-05-14T02:00:26.790Z,101896.44
2023-05-14T02:02:54.832Z,101889.44
2023-05-14T02:05:24.484Z,101879.06
2023-05-14T02:07:54.732Z,101879.16
2023-05-14T02:10:22.767Z,101884.50
2023-05-14T02:12:52.188Z,101868.00
2023-05-14T02:15:19.966Z,101875.47
2023-05-14T02:17:47.810Z,101872.59
2023-05-14T02:20:15.828Z,101874.41
2023-05-14T02:22:45.669Z,101874.09
2023-05-14T02:25:13.704Z,101875.00
2023-05-14T02:27:41.488Z,101882.63
2023-05-14T02:30:12.648Z,101874.38
2023-05-14T02:32:40.337Z,101873.78
2023-05-14T02:35:09.087Z,101867.66
2023-05-14T02:37:36.909Z,101869.97
2023-05-14T02:40:05.349Z,101863.69
2023-05-14T02:42:33.462Z,101872.41
2023-05-14T02:45:01.439Z,101862.31
2023-05-14T02:47:30.646Z,101865.16
2023-05-14T02:49:58.402Z,101866.06
2023-05-14T02:52:26.196Z,101862.41
2023-05-14T02:54:54.514Z,101854.28
2023-05-14T02:57:22.305Z,101860.38
2023-05-14T02:59:50.059Z,101860.84
2023-05-14T03:02:18.290Z,101856.25
2023-05-14T03:04:48.211Z,101855.16
2023-05-14T03:07:15.990Z,101867.69
2023-05-14T03:09:43.716Z,101859.56
2023-05-14T03:12:12.643Z,101856.19
2023-05-14T03:14:40.415Z,101855.00
2023-05-14T03:17:08.285Z,101856.78
2023-05-14T03:19:36.111Z,101854.19
2023-05-14T03:22:05.739Z,101858.00
2023-05-14T03:24:33.558Z,101857.81
2023-05-14T03:27:01.322Z,101860.56
2023-05-14T03:29:29.285Z,101862.22
2023-05-14T03:31:57.156Z,101855.03
2023-05-14T03:34:25.324Z,101856.25
2023-05-14T03:36:53.068Z,101850.34
2023-05-14T03:39:22.151Z,101859.00
2023-05-14T03:41:50.038Z,101848.94
2023-05-14T03:44:17.922Z,101853.88
2023-05-14T03:46:45.831Z,101853.50
2023-05-14T03:49:13.777Z,101857.78
2023-05-14T03:51:41.596Z,101855.81
2023-05-14T03:54:09.422Z,101847.75
2023-05-14T03:56:38.528Z,101842.19
2023-05-14T03:59:06.400Z,101845.81
2023-05-14T04:01:34.152Z,101843.84
2023-05-14T04:04:01.967Z,101850.84
2023-05-14T04:06:30.082Z,101840.00
2023-05-14T04:08:57.899Z,101836.06
2023-05-14T04:11:25.683Z,101835.94
2023-05-14T04:13:54.812Z,101837.78
2023-05-14T04:16:23.502Z,101840.00
2023-05-14T04:18:51.610Z,101843.06
2023-05-14T04:21:19.393Z,101835.16
2023-05-14T04:23:47.218Z,101836.25
2023-05-14T04:26:15.025Z,101833.97
2023-05-14T04:28:42.813Z,101835.00
2023-05-14T04:31:11.902Z,101835.00
2023-05-14T04:33:40.042Z,101829.84
2023-05-14T04:36:08.370Z,101831.03
2023-05-14T04:38:36.177Z,101833.13
2023-05-14T04:41:03.918Z,101833.59
2023-05-14T04:43:31.646Z,101842.13
2023-05-14T04:45:59.502Z,101836.97
2023-05-14T04:48:28.789Z,101840.59
2023-05-14T04:50:56.530Z,101837.09
2023-05-14T04:53:24.405Z,101837.53
2023-05-14T04:55:52.344Z,101838.94
2023-05-14T04:58:20.064Z,101838.06
2023-05-14T05:00:47.910Z,101843.97
2023-05-14T05:03:15.867Z,101844.28
2023-05-14T05:05:45.063Z,101845.38
2023-05-14T05:08:12.852Z,101843.28
2023-05-14T05:10:40.648Z,101842.06
2023-05-14T05:13:08.392Z,101845.38
2023-05-14T05:15:36.167Z,101848.28
2023-05-14T05:18:04.030Z,101846.63
2023-05-14T05:20:32.463Z,101844.22
2023-05-14T05:23:01.626Z,101841.47
2023-05-14T05:25:29.405Z,101852.31
2023-05-14T05:27:57.182Z,101853.72
2023-05-14T05:30:25.254Z,101851.72
2023-05-14T05:32:53.380Z,101853.56
2023-05-14T05:35:21.261Z,101852.81
2023-05-14T05:37:49.090Z,101855.75
2023-05-14T05:40:18.989Z,101860.66
2023-05-14T05:42:46.802Z,101852.59
2023-05-14T05:45:14.584Z,101853.34
2023-05-14T05:47:42.424Z,101852.81
2023-05-14T05:50:11.237Z,101856.16
2023-05-14T05:52:39.375Z,101862.41
2023-05-14T05:55:07.858Z,101867.91
2023-05-14T05:57:36.993Z,101867.00
2023-05-14T06:00:13.166Z,101860.44
2023-05-14T06:02:42.108Z,101863.19
2023-05-14T06:05:11.131Z,101865.16
2023-05-14T06:07:39.106Z,101867.44
2023-05-14T06:10:08.195Z,101866.84
2023-05-14T06:12:37.400Z,101872.06
2023-05-14T06:15:05.848Z,101858.81
2023-05-14T06:17:33.685Z,101861.72
2023-05-14T06:20:01.436Z,101876.38
2023-05-14T06:22:29.191Z,101870.00
2023-05-14T06:24:56.934Z,101873.97
2023-05-14T06:27:24.713Z,101871.81
2023-05-14T06:29:53.795Z,101888.06
2023-05-14T06:32:21.673Z,101885.66
2023-05-14T06:34:49.479Z,101884.78
2023-05-14T06:37:17.247Z,101880.53
2023-05-14T06:39:50.084Z,101866.97
2023-05-14T06:42:18.269Z,101869.75
2023-05-14T06:44:46.299Z,101867.31
2023-05-14T06:47:15.413Z,101866.72
2023-05-14T06:49:43.151Z,101880.47
2023-05-14T06:52:10.918Z,101862.00
2023-05-14T06:54:39.356Z,101859.81
2023-05-14T06:57:07.197Z,101863.91
2023-05-14T06:59:34.965Z,101860.28
2023-05-14T07:02:03.163Z,101861.59
2023-05-14T07:04:32.396Z,101857.03
2023-05-14T07:07:00.201Z,101857.13
2023-05-14T07:09:27.953Z,101862.34
2023-05-14T07:11:55.772Z,101864.56
2023-05-14T07:14:23.540Z,101857.44
2023-05-14T07:16:51.345Z,101866.44
2023-05-14T07:19:19.236Z,101866.53
2023-05-14T07:21:48.382Z,101868.78
2023-05-14T07:24:16.167Z,101860.22
2023-05-14T07:26:44.977Z,101856.25
2023-05-14T07:29:12.836Z,101861.13
2023-05-14T07:31:40.632Z,101863.78
2023-05-14T07:34:10.821Z,101859.63
2023-05-14T07:36:38.679Z,101857.03
2023-05-14T07:39:07.843Z,101861.50
2023-05-14T07:41:35.598Z,101858.91
2023-05-14T07:44:03.386Z,101858.66
2023-05-14T07:46:31.113Z,101851.22
2023-05-14T07:48:58.866Z,101850.81
2023-05-14T07:51:28.205Z,101854.75
2023-05-14T07:53:56.538Z,101851.13
2023-05-14T07:56:25.861Z,101850.28
2023-05-14T07:58:53.646Z,101847.97
2023-05-14T08:01:21.722Z,101845.13
2023-05-14T08:03:49.613Z,101845.78
2023-05-14T08:06:17.444Z,101844.63
2023-05-14T08:08:45.202Z,101844.81
2023-05-14T08:11:13.031Z,101844.38
2023-05-14T08:13:42.303Z,101855.06
2023-05-14T08:16:10.126Z,101843.16
2023-05-14T08:18:37.999Z,101847.97
2023-05-14T08:21:06.238Z,101848.06
2023-05-14T08:23:34.026Z,101845.78
2023-05-14T08:26:01.769Z,101843.69
2023-05-14T08:28:29.540Z,101849.41
2023-05-14T08:30:58.772Z,101853.25
2023-05-14T08:33:26.537Z,101852.00
2023-05-14T08:35:54.963Z,101845.97
2023-05-14T08:38:22.770Z,101841.75
2023-05-14T08:40:57.637Z,101841.28
2023-05-14T08:43:27.500Z,101845.34
2023-05-14T08:46:02.399Z,101848.13
2023-05-14T08:48:33.788Z,101831.22
2023-05-14T08:51:02.992Z,101828.19
2023-05-14T08:53:32.171Z,101830.16
2023-05-14T08:56:02.108Z,101835.19
2023-05-14T08:58:29.896Z,101834.91
2023-05-14T09:00:57.829Z,101833.13
2023-05-14T09:03:27.020Z,101828.75
2023-05-14T09:05:55.182Z,101825.44
2023-05-14T09:08:23.174Z,101830.34
2023-05-14T09:10:50.985Z,101819.50
2023-05-14T09:13:18.807Z,101815.56
2023-05-14T09:15:49.102Z,101819.06
2023-05-14T09:18:17.147Z,101824.81
2023-05-14T09:20:48.375Z,101814.66
2023-05-14T09:23:16.109Z,101811.13
2023-05-14T09:25:43.926Z,101811.97
2023-05-14T09:28:11.660Z,101811.09
2023-05-14T09:30:39.474Z,101810.66
2023-05-14T09:33:10.329Z,101795.31
2023-05-14T09:35:40.279Z,101808.47
2023-05-14T09:38:09.441Z,101798.34
2023-05-14T09:40:37.327Z,101799.72
2023-05-14T09:43:05.392Z,101797.31
2023-05-14T09:45:33.176Z,101787.94
2023-05-14T09:48:01.760Z,101796.56
2023-05-14T09:50:29.688Z,101791.19
2023-05-14T09:52:57.487Z,101794.81
2023-05-14T09:55:27.256Z,101795.84
2023-05-14T09:57:55.033Z,101793.41
2023-05-14T10:00:23.596Z,101791.75
2023-05-14T10:02:53.616Z,101793.94
2023-05-14T10:05:24.688Z,101790.47
2023-05-14T10:07:55.366Z,101783.25
2023-05-14T10:10:27.717Z,101776.69
2023-05-14T10:12:59.629Z,101783.91
2023-05-14T10:15:34.604Z,101781.66
2023-05-14T10:18:09.009Z,101782.72
2023-05-14T10:20:38.736Z,101770.16
2023-05-14T10:23:07.933Z,101774.34
2023-05-14T10:25:36.819Z,101771.91
2023-05-14T10:28:06.875Z,101769.84
2023-05-14T10:30:34.688Z,101760.78
2023-05-14T10:33:09.936Z,101764.75
2023-05-14T10:36:02.343Z,101762.13
2023-05-14T10:38:31.704Z,101763.22
2023-05-14T10:41:03.808Z,101769.53
2023-05-14T10:43:38.463Z,101763.78
2023-05-14T10:46:07.615Z,101760.16
2023-05-14T10:48:37.674Z,101758.97
2023-05-14T10:51:08.664Z,101755.44
2023-05-14T10:53:38.426Z,101750.16
2023-05-14T10:56:07.992Z,101754.69
2023-05-14T10:58:38.803Z,101751.59
2023-05-14T11:01:08.357Z,101740.69
2023-05-14T11:03:41.815Z,101739.97
2023-05-14T11:06:11.060Z,101741.75
2023-05-14T11:08:39.276Z,101739.47
2023-05-14T11:11:07.341Z,101730.91
2023-05-14T11:13:35.247Z,101733.69
2023-05-14T11:16:15.644Z,101737.88
2023-05-14T11:18:54.777Z,101741.88
2023-05-14T11:21:22.769Z,101736.31
2023-05-14T11:23:50.965Z,101735.28
2023-05-14T11:26:21.424Z,101721.47
2023-05-14T11:28:49.641Z,101733.13
2023-05-14T11:31:19.020Z,101718.78
2023-05-14T11:33:47.192Z,101714.78
2023-05-14T11:36:15.009Z,101719.66
2023-05-14T11:38:48.813Z,101704.16
2023-05-14T11:41:16.709Z,101710.34
2023-05-14T11:43:44.655Z,101713.28
2023-05-14T11:46:19.384Z,101712.56
2023-05-14T11:48:47.402Z,101708.63
2023-05-14T11:51:15.143Z,101702.44
2023-05-14T11:53:42.950Z,101705.25
2023-05-14T11:56:11.344Z,101705.25
2023-05-14T11:58:39.218Z,101702.59
2023-05-14T12:01:07.017Z,101704.53
2023-05-14T12:03:36.487Z,101701.44
2023-05-14T12:06:07.982Z,101699.97
2023-05-14T12:08:35.784Z,101691.75
2023-05-14T12:11:03.589Z,101690.66
2023-05-14T12:13:32.408Z,101688.66
2023-05-14T12:16:02.230Z,101679.09
2023-05-14T12:18:32.905Z,101680.75
2023-05-14T12:21:07.908Z,101680.56
2023-05-14T12:23:35.972Z,101684.28
2023-05-14T12:26:06.148Z,101684.34
2023-05-14T12:28:36.071Z,101681.53
2023-05-14T12:31:05.786Z,101667.69
2023-05-14T12:33:33.616Z,101672.34
2023-05-14T12:36:19.757Z,101672.34
2023-05-14T12:38:50.350Z,101666.69
2023-05-14T12:41:18.499Z,101661.44
2023-05-14T12:43:49.522Z,101656.06
2023-05-14T12:46:17.524Z,101652.72
2023-05-14T12:48:45.338Z,101651.19
2023-05-14T12:51:13.122Z,101653.47
2023-05-14T12:53:41.232Z,101651.00
2023-05-14T12:56:11.009Z,101652.69
2023-05-14T12:58:39.087Z,101648.53
2023-05-14T13:01:07.717Z,101633.94
2023-05-14T13:03:35.562Z,101642.22
2023-05-14T13:06:03.440Z,101643.91
2023-05-14T13:08:31.205Z,101646.31
2023-05-14T13:10:58.960Z,101642.91
2023-05-14T13:13:28.369Z,101638.06
2023-05-14T13:15:56.226Z,101637.75
2023-05-14T13:18:23.993Z,101642.03
2023-05-14T13:20:51.814Z,101626.16
2023-05-14T13:23:19.578Z,101636.84
2023-05-14T13:25:49.732Z,101628.38
2023-05-14T13:28:17.719Z,101636.06
2023-05-14T13:31:05.956Z,101632.13
2023-05-14T13:33:34.524Z,101631.19
2023-05-14T13:36:02.325Z,101624.50
2023-05-14T13:38:30.176Z,101618.84
2023-05-14T13:41:02.118Z,101621.31
2023-05-14T13:43:30.991Z,101627.47
2023-05-14T13:46:01.053Z,101620.75
2023-05-14T13:48:29.019Z,101613.25
2023-05-14T13:50:56.811Z,101618.31
2023-05-14T13:53:25.675Z,101615.31
2023-05-14T13:55:56.372Z,101610.63
2023-05-14T13:58:25.117Z,101604.28
2023-05-14T14:00:53.507Z,101608.00
2023-05-14T14:03:22.652Z,101610.63
2023-05-14T14:05:51.561Z,101598.13
2023-05-14T14:08:23.920Z,101598.13
2023-05-14T14:10:54.391Z,101597.72
2023-05-14T14:13:22.875Z,101596.78
2023-05-14T14:15:51.280Z,101598.63
2023-05-14T14:18:19.171Z,101592.13
2023-05-14T14:20:48.550Z,101594.00
2023-05-14T14:23:16.443Z,101587.44
2023-05-14T14:25:44.355Z,101580.50
2023-05-14T14:28:12.089Z,101586.31
2023-05-14T14:30:39.898Z,101581.47
2023-05-14T14:33:07.801Z,101579.97
2023-05-14T14:35:36.298Z,101582.72
2023-05-14T14:38:05.681Z,101573.41
2023-05-14T14:40:34.208Z,101580.13
2023-05-14T14:43:02.010Z,101576.97
2023-05-14T14:45:29.756Z,101577.50
2023-05-14T14:48:25.825Z,101573.34
2023-05-14T14:50:54.038Z,101572.63
2023-05-14T14:53:23.972Z,101581.06
2023-05-14T14:55:52.144Z,101572.63
2023-05-14T14:58:21.338Z,101575.41
2023-05-14T15:00:50.023Z,101575.06
2023-05-14T15:03:18.721Z,101578.59
2023-05-14T15:05:47.008Z,101575.34
2023-05-14T15:08:14.790Z,101571.41
2023-05-14T15:10:45.656Z,101574.56
2023-05-14T15:13:13.786Z,101569.84
2023-05-14T15:15:41.668Z,101573.34
2023-05-14T15:18:10.053Z,101571.47
2023-05-14T15:20:38.573Z,101571.41
2023-05-14T15:23:06.817Z,101566.28
2023-05-14T15:25:34.597Z,101570.81
2023-05-14T15:28:03.798Z,101568.69
2023-05-14T15:30:31.612Z,101563.16
2023-05-14T15:32:59.441Z,101555.88
2023-05-14T15:35:27.349Z,101560.22
2023-05-14T15:37:56.990Z,101561.53
2023-05-14T15:40:24.930Z,101551.94
2023-05-14T15:42:52.797Z,101546.03
2023-05-14T15:45:22.178Z,101552.63
2023-05-14T15:47:50.027Z,101549.50
2023-05-14T15:50:17.836Z,101547.63
2023-05-14T15:52:45.743Z,101549.81
2023-05-14T15:55:13.504Z,101545.75
2023-05-14T15:57:41.296Z,101543.19
2023-05-14T16:00:11.010Z,101537.97
2023-05-14T16:02:40.437Z,101540.84
2023-05-14T16:05:09.103Z,101542.63
2023-05-14T16:07:37.380Z,101547.00
2023-05-14T16:10:05.975Z,101543.22
2023-05-14T16:12:33.831Z,101547.41
2023-05-14T16:15:01.646Z,101542.25
2023-05-14T16:17:30.440Z,101547.84
2023-05-14T16:20:00.765Z,101552.69
2023-05-14T16:22:29.191Z,101551.31
2023-05-14T16:24:57.002Z,101560.00
2023-05-14T16:27:24.811Z,101542.31
2023-05-14T16:29:52.576Z,101548.09
2023-05-14T16:32:21.562Z,101547.97
2023-05-14T16:34:50.598Z,101553.25
2023-05-14T16:37:20.599Z,101550.81
2023-05-14T16:39:48.612Z,101545.88
2023-05-14T16:42:16.382Z,101549.38
2023-05-14T16:44:44.141Z,101541.78
2023-05-14T16:47:12.040Z,101544.47
2023-05-14T16:49:39.794Z,101548.66
2023-05-14T16:52:08.402Z,101553.75
2023-05-14T16:54:37.612Z,101556.78
2023-05-14T16:57:06.411Z,101563.78
2023-05-14T16:59:34.193Z,101558.38
2023-05-14T17:02:02.059Z,101568.94
2023-05-14T17:04:29.912Z,101561.25
2023-05-14T17:06:58.098Z,101563.44
2023-05-14T17:09:25.965Z,101565.59
2023-05-14T17:11:55.087Z,101558.69
2023-05-14T17:14:22.827Z,101561.91
2023-05-14T17:16:50.647Z,101560.31
2023-05-14T17:19:18.464Z,101562.19
2023-05-14T17:21:46.227Z,101564.28
2023-05-14T17:24:13.968Z,101560.44
2023-05-14T17:26:41.955Z,101564.75
2023-05-14T17:29:11.117Z,101569.19
2023-05-14T17:31:38.896Z,101565.31
2023-05-14T17:34:06.708Z,101575.81
2023-05-14T17:36:34.503Z,101567.88
2023-05-14T17:39:02.309Z,101569.94
2023-05-14T17:41:30.100Z,101563.06
2023-05-14T17:43:57.884Z,101566.97
2023-05-14T17:46:27.233Z,101562.69
2023-05-14T17:48:54.970Z,101561.88
2023-05-14T17:51:22.739Z,101571.97
2023-05-14T17:53:50.843Z,101570.03
2023-05-14T17:56:18.696Z,101573.53
2023-05-14T17:58:46.629Z,101578.91
2023-05-14T18:01:14.423Z,101583.94
2023-05-14T18:03:43.704Z,101585.56
2023-05-14T18:06:11.637Z,101590.41
2023-05-14T18:08:39.459Z,101588.16
2023-05-14T18:11:07.331Z,101576.88
2023-05-14T18:13:35.127Z,101581.16
2023-05-14T18:16:03.847Z,101590.22
2023-05-14T18:18:32.075Z,101588.47
2023-05-14T18:21:01.294Z,101595.31
2023-05-14T18:23:29.100Z,101585.72
2023-05-14T18:25:56.927Z,101597.28
2023-05-14T18:28:24.847Z,101595.56
2023-05-14T18:30:52.667Z,101598.28
2023-05-14T18:33:20.487Z,101593.75
2023-05-14T18:35:48.297Z,101604.06
2023-05-14T18:38:17.964Z,101601.28
2023-05-14T18:40:45.982Z,101596.25
2023-05-14T18:43:15.002Z,101598.53
2023-05-14T18:45:43.072Z,101606.59
2023-05-14T18:48:10.986Z,101600.28
2023-05-14T18:50:39.555Z,101605.81
2023-05-14T18:53:08.364Z,101607.56
2023-05-14T18:55:37.640Z,101611.75
2023-05-14T18:58:05.492Z,101614.63
2023-05-14T19:00:33.244Z,101610.13
2023-05-14T19:03:01.047Z,101616.91
2023-05-14T19:05:28.933Z,101613.56
2023-05-14T19:07:57.598Z,101613.56
2023-05-14T19:10:25.390Z,101619.56
2023-05-14T19:12:54.563Z,101617.66
2023-05-14T19:15:22.739Z,101618.13
2023-05-14T19:17:52.052Z,101622.72
2023-05-14T19:20:20.085Z,101621.44
2023-05-14T19:22:47.881Z,101625.97
2023-05-14T19:25:15.855Z,101622.16
2023-05-14T19:27:44.837Z,101618.63
2023-05-14T19:30:15.035Z,101618.38
2023-05-14T19:32:42.865Z,101615.06
2023-05-14T19:35:11.427Z,101612.22
2023-05-14T19:37:39.291Z,101611.94
2023-05-14T19:40:08.437Z,101608.00
2023-05-14T19:42:36.221Z,101612.50
2023-05-14T19:45:04.363Z,101611.41
2023-05-14T19:47:33.588Z,101609.47
2023-05-14T19:50:01.371Z,101609.88
2023-05-14T19:52:29.136Z,101622.53
2023-05-14T19:54:56.877Z,101614.31
2023-05-14T19:57:24.679Z,101621.47
2023-05-14T19:59:52.471Z,101621.84
2023-05-14T20:02:21.659Z,101615.34
2023-05-14T20:04:51.619Z,101619.56
2023-05-14T20:07:20.111Z,101621.09
2023-05-14T20:09:47.863Z,101612.88
2023-05-14T20:12:16.752Z,101614.13
2023-05-14T20:14:44.864Z,101616.06
2023-05-14T20:17:12.780Z,101613.66
2023-05-14T20:19:41.142Z,101613.53
2023-05-14T20:22:10.282Z,101619.63
2023-05-14T20:24:38.551Z,101618.38
2023-05-14T20:27:06.856Z,101610.16
2023-05-14T20:29:34.640Z,101603.44
2023-05-14T20:32:02.436Z,101603.13
2023-05-14T20:34:30.198Z,101607.13
2023-05-14T20:36:58.506Z,101606.03
2023-05-14T20:39:27.593Z,101601.66
2023-05-14T20:41:55.427Z,101601.06
2023-05-14T20:44:23.232Z,101599.91
2023-05-14T20:46:51.228Z,101602.84
2023-05-14T20:49:19.112Z,101596.66
2023-05-14T20:51:46.861Z,101598.66
2023-05-14T20:54:14.636Z,101592.31
2023-05-14T20:56:43.762Z,101593.84
2023-05-14T20:59:11.544Z,101590.34
2023-05-14T21:01:39.362Z,101581.91
2023-05-14T21:04:08.063Z,101586.03
2023-05-14T21:06:36.114Z,101582.06
2023-05-14T21:09:03.858Z,101581.56
2023-05-14T21:11:31.618Z,101579.03
2023-05-14T21:14:00.897Z,101578.75
2023-05-14T21:16:28.826Z,101580.66
2023-05-14T21:18:56.620Z,101583.41
2023-05-14T21:21:24.423Z,101583.22
2023-05-14T21:23:52.206Z,101590.00
2023-05-14T21:26:22.731Z,101587.72
2023-05-14T21:28:50.630Z,101590.56
2023-05-14T21:31:19.779Z,101588.28
2023-05-14T21:33:47.838Z,101587.72
2023-05-14T21:36:15.735Z,101594.97
2023-05-14T21:38:43.647Z,101590.88
2023-05-14T21:41:11.452Z,101585.59
2023-05-14T21:43:40.586Z,101577.72
2023-05-14T21:46:08.650Z,101576.94
2023-05-14T21:48:37.800Z,101573.28
2023-05-14T21:51:07.891Z,101572.13
2023-05-14T21:53:35.722Z,101569.59
2023-05-14T21:56:03.506Z,101567.47
2023-05-14T21:58:31.276Z,101571.94
2023-05-14T22:00:59.076Z,101560.28
2023-05-14T22:03:26.926Z,101563.50
2023-05-14T22:05:56.153Z,101569.19
2023-05-14T22:08:24.321Z,101567.19
2023-05-14T22:10:52.178Z,101564.63
2023-05-14T22:13:19.942Z,101560.94
2023-05-14T22:15:48.489Z,101561.97
2023-05-14T22:18:18.201Z,101555.97
2023-05-14T22:20:46.059Z,101556.47
2023-05-14T22:23:15.203Z,101554.75
2023-05-14T22:25:43.759Z,101556.28
2023-05-14T22:28:11.514Z,101554.75
2023-05-14T22:30:39.248Z,101550.69
2023-05-14T22:33:07.052Z,101550.38
2023-05-14T22:35:34.850Z,101559.78
2023-05-14T22:38:02.588Z,101552.47
2023-05-14T22:40:31.705Z,101546.69
2023-05-14T22:42:59.467Z,101542.88
2023-05-14T22:45:27.391Z,101541.84
2023-05-14T22:47:55.274Z,101538.50
2023-05-14T22:50:23.123Z,101538.41
2023-05-14T22:52:50.889Z,101526.84
2023-05-14T22:55:18.811Z,101528.63
2023-05-14T22:57:48.057Z,101527.78
2023-05-14T23:00:16.479Z,101518.44
2023-05-14T23:02:44.548Z,101515.25
2023-05-14T23:05:12.432Z,101521.81
2023-05-14T23:07:40.555Z,101512.66
2023-05-14T23:10:09.033Z,101518.81
2023-05-14T23:12:36.769Z,101517.88
2023-05-14T23:15:06.943Z,101514.66
2023-05-14T23:17:34.878Z,101514.63
2023-05-14T23:20:04.868Z,101524.22
2023-05-14T23:22:32.647Z,101522.69
2023-05-14T23:25:00.427Z,101521.91
2023-05-14T23:27:28.238Z,101517.06
2023-05-14T23:29:56.056Z,101505.34
2023-05-14T23:32:25.271Z,101509.03
2023-05-14T23:34:53.097Z,101504.28
2023-05-14T23:37:20.838Z,101498.19
2023-05-14T23:39:48.692Z,101494.91
2023-05-14T23:42:16.457Z,101484.78
2023-05-14T23:44:44.236Z,101484.91
2023-05-14T23:47:12.482Z,101477.25
2023-05-14T23:49:41.633Z,101472.81
2023-05-14T23:52:09.371Z,101471.78
2023-05-14T23:54:37.134Z,101472.06
2023-05-14T23:57:05.261Z,101470.56
2023-05-14T23:59:33.062Z,101464.91
